Time;durP1;ratioP1;P1;durP2;ratioP2;P2;SDS_P1;SDS_P2;PMS_P1;PMS_P2;Temp;Humidity;BMP_temperature;BMP_pressure;BME280_temperature;BME280_humidity;BME280_pressure;Samples;Min_cycle;Max_cycle;Signal;HPM_P1;HPM_P2
2020/12/22 00:00:51;;;;;;;0.30;0.30;;;16.00;72.20;;;;;;2101244;28;20148;-74
2020/12/22 00:01:51;;;;;;;0.40;0.40;;;16.00;72.20;;;;;;2108181;28;20102;-73
2020/12/22 00:02:52;;;;;;;0.43;0.43;;;16.00;72.20;;;;;;2112387;28;20103;-73
2020/12/22 00:03:52;;;;;;;0.45;0.45;;;16.10;72.40;;;;;;2111887;28;20029;-73
2020/12/22 00:04:53;;;;;;;0.88;0.50;;;16.10;72.30;;;;;;2113179;28;21374;-74
2020/12/22 00:05:54;;;;;;;2.00;0.50;;;16.10;72.30;;;;;;2111968;28;20059;-75
2020/12/22 00:06:57;;;;;;;0.40;0.40;;;16.10;72.30;;;;;;2112990;28;20438;-72
2020/12/22 00:07:58;;;;;;;0.30;0.30;;;16.10;72.30;;;;;;2112870;28;20020;-74
2020/12/22 00:08:59;;;;;;;0.73;0.30;;;16.10;72.30;;;;;;2111951;28;20050;-73
2020/12/22 00:09:59;;;;;;;0.40;0.40;;;16.10;72.20;;;;;;2112849;28;20055;-74
2020/12/22 00:11:00;;;;;;;0.40;0.40;;;16.20;72.20;;;;;;2111736;28;20055;-75
2020/12/22 00:12:09;;;;;;;0.30;0.30;;;16.20;72.20;;;;;;2111887;28;20070;-74
2020/12/22 00:13:09;;;;;;;0.75;0.40;;;16.20;72.20;;;;;;2112298;28;20028;-75
2020/12/22 00:14:10;;;;;;;0.45;0.45;;;16.20;72.10;;;;;;2112737;28;20024;-76
2020/12/22 00:15:11;;;;;;;0.35;0.35;;;16.20;72.10;;;;;;2112565;28;20027;-74
2020/12/22 00:16:11;;;;;;;0.45;0.45;;;16.20;72.10;;;;;;2111292;28;20044;-74
2020/12/22 00:17:12;;;;;;;0.30;0.30;;;16.30;72.00;;;;;;2104165;28;20024;-75
2020/12/22 00:18:14;;;;;;;0.40;0.40;;;16.30;72.00;;;;;;2103670;28;20032;-74
2020/12/22 00:19:14;;;;;;;0.40;0.40;;;16.30;71.90;;;;;;2111407;28;20043;-74
2020/12/22 00:20:15;;;;;;;0.50;0.50;;;16.30;71.90;;;;;;2112741;28;20023;-74
2020/12/22 00:21:21;;;;;;;0.50;0.40;;;16.30;71.90;;;;;;2112518;28;20084;-74
2020/12/22 00:22:22;;;;;;;0.40;0.40;;;16.30;71.90;;;;;;2112877;28;20342;-75
2020/12/22 00:23:22;;;;;;;1.27;0.50;;;16.30;71.80;;;;;;2103508;28;20093;-74
2020/12/22 00:24:23;;;;;;;0.40;0.40;;;16.30;71.80;;;;;;2103190;28;20124;-75
2020/12/22 00:25:23;;;;;;;0.50;0.50;;;16.40;71.90;;;;;;2095693;28;20044;-74
2020/12/22 00:26:24;;;;;;;0.40;0.40;;;16.40;71.80;;;;;;2103345;28;20599;-76
2020/12/22 00:27:25;;;;;;;0.40;0.40;;;16.40;71.80;;;;;;2112720;28;20402;-76
2020/12/22 00:28:26;;;;;;;0.50;0.47;;;16.40;72.50;;;;;;2113562;28;20023;-75
2020/12/22 00:29:27;;;;;;;0.70;0.40;;;16.40;71.70;;;;;;2113824;28;20543;-77
2020/12/22 00:30:27;;;;;;;1.15;0.50;;;16.40;71.80;;;;;;2113409;28;20020;-77
2020/12/22 00:31:28;;;;;;;0.52;0.50;;;16.40;71.70;;;;;;2104712;28;20040;-75
2020/12/22 00:32:28;;;;;;;0.40;0.40;;;16.40;71.70;;;;;;2105596;28;20366;-74
2020/12/22 00:33:29;;;;;;;0.40;0.40;;;16.40;71.70;;;;;;2105194;28;20024;-76
2020/12/22 00:34:32;;;;;;;0.40;0.40;;;16.40;71.70;;;;;;2105040;28;20024;-75
2020/12/22 00:35:33;;;;;;;0.40;0.40;;;16.50;71.70;;;;;;2114592;28;20028;-76
2020/12/22 00:36:33;;;;;;;0.43;0.43;;;16.50;71.60;;;;;;2114253;28;20050;-75
2020/12/22 00:37:34;;;;;;;0.65;0.40;;;16.50;71.60;;;;;;2113659;28;20035;-75
2020/12/22 00:38:35;;;;;;;0.55;0.50;;;16.50;71.60;;;;;;2101632;28;20070;-75
2020/12/22 00:39:36;;;;;;;0.50;0.50;;;16.50;71.70;;;;;;2101972;28;20071;-74
2020/12/22 00:40:36;;;;;;;0.43;0.40;;;16.50;71.60;;;;;;2114829;28;20377;-75
2020/12/22 00:41:37;;;;;;;0.55;0.43;;;16.50;71.60;;;;;;2114580;28;20038;-76
2020/12/22 00:42:37;;;;;;;0.65;0.60;;;16.60;71.60;;;;;;2113429;27;20026;-73
2020/12/22 00:43:40;;;;;;;0.40;0.40;;;16.50;71.50;;;;;;2105032;28;20036;-75
2020/12/22 00:44:40;;;;;;;0.68;0.52;;;16.50;71.50;;;;;;2105515;28;20459;-74
2020/12/22 00:45:41;;;;;;;0.40;0.40;;;16.60;71.50;;;;;;2112562;28;20031;-75
2020/12/22 00:46:41;;;;;;;0.30;0.30;;;16.60;71.50;;;;;;2104716;28;20020;-75
2020/12/22 00:47:42;;;;;;;0.52;0.30;;;16.60;71.50;;;;;;2105378;28;20052;-74
2020/12/22 00:48:49;;;;;;;0.40;0.40;;;16.60;71.40;;;;;;2112763;28;20031;-72
2020/12/22 00:49:49;;;;;;;0.30;0.30;;;16.60;71.40;;;;;;2113724;28;20020;-74
2020/12/22 00:50:50;;;;;;;0.30;0.30;;;16.60;71.40;;;;;;2113876;28;20031;-74
2020/12/22 00:51:51;;;;;;;0.47;0.40;;;16.60;71.40;;;;;;2113341;28;20039;-73
2020/12/22 00:52:51;;;;;;;0.80;0.50;;;16.60;71.30;;;;;;2113036;28;20076;-73
2020/12/22 00:53:52;;;;;;;0.88;0.70;;;16.70;71.40;;;;;;2104885;28;20024;-74
2020/12/22 00:54:52;;;;;;;0.68;0.45;;;16.60;71.40;;;;;;2104904;28;20123;-73
2020/12/22 00:55:53;;;;;;;0.40;0.40;;;16.70;71.40;;;;;;2114155;28;20361;-73
2020/12/22 00:56:53;;;;;;;0.40;0.40;;;16.60;71.30;;;;;;2113427;28;20027;-73
2020/12/22 00:57:54;;;;;;;0.35;0.32;;;16.60;71.30;;;;;;2112040;28;20042;-74
2020/12/22 00:58:55;;;;;;;0.60;0.60;;;16.60;71.30;;;;;;2113637;28;20438;-74
2020/12/22 00:59:55;;;;;;;0.45;0.45;;;16.60;71.20;;;;;;2113811;28;20062;-74
2020/12/22 01:00:56;;;;;;;1.35;0.40;;;16.70;71.30;;;;;;2113673;28;20091;-73
2020/12/22 01:02:03;;;;;;;0.82;0.60;;;16.70;71.30;;;;;;2114281;28;20106;-74
2020/12/22 01:03:04;;;;;;;0.30;0.30;;;16.70;71.30;;;;;;2113665;28;20072;-74
2020/12/22 01:04:04;;;;;;;0.43;0.40;;;16.70;71.20;;;;;;2113977;28;20088;-74
2020/12/22 01:05:06;;;;;;;0.40;0.40;;;16.70;71.20;;;;;;2114072;28;20399;-75
2020/12/22 01:06:07;;;;;;;0.40;0.40;;;16.70;71.20;;;;;;2113623;28;20450;-74
2020/12/22 01:07:07;;;;;;;0.40;0.40;;;16.80;71.20;;;;;;2114091;28;20032;-75
2020/12/22 01:08:08;;;;;;;0.90;0.50;;;16.70;71.10;;;;;;2114197;28;20100;-73
2020/12/22 01:09:09;;;;;;;0.50;0.50;;;16.70;71.10;;;;;;2113713;28;20438;-72
2020/12/22 01:10:09;;;;;;;0.60;0.60;;;16.80;71.20;;;;;;2113635;28;20020;-75
2020/12/22 01:11:10;;;;;;;0.40;0.40;;;16.80;71.20;;;;;;2114025;28;20102;-72
2020/12/22 01:12:11;;;;;;;0.63;0.40;;;16.80;71.20;;;;;;2113177;27;20024;-75
2020/12/22 01:13:11;;;;;;;0.30;0.30;;;16.80;71.20;;;;;;2114256;27;20024;-73
2020/12/22 01:14:12;;;;;;;0.40;0.40;;;16.80;71.10;;;;;;2113562;28;20019;-73
2020/12/22 01:15:13;;;;;;;0.50;0.50;;;16.70;71.10;;;;;;2104588;28;20465;-73
2020/12/22 01:16:13;;;;;;;0.43;0.43;;;16.70;71.10;;;;;;2096055;28;20035;-73
2020/12/22 01:17:14;;;;;;;0.50;0.50;;;16.70;71.10;;;;;;2105361;28;20477;-70
2020/12/22 01:18:14;;;;;;;1.65;0.50;;;16.80;71.20;;;;;;2113885;28;20051;-74
2020/12/22 01:19:15;;;;;;;1.65;0.80;;;16.70;71.10;;;;;;2112892;28;20522;-74
2020/12/22 01:20:15;;;;;;;0.65;0.60;;;16.70;71.20;;;;;;2113805;28;20028;-73
2020/12/22 01:21:18;;;;;;;0.40;0.40;;;16.70;71.30;;;;;;2113816;28;20085;-73
2020/12/22 01:22:19;;;;;;;0.95;0.55;;;16.70;71.30;;;;;;2113336;27;20068;-75
2020/12/22 01:23:20;;;;;;;0.80;0.32;;;16.70;71.40;;;;;;2113477;28;20034;-74
2020/12/22 01:24:21;;;;;;;0.40;0.40;;;16.60;71.40;;;;;;2113481;28;20042;-73
2020/12/22 01:25:22;;;;;;;0.63;0.47;;;16.60;71.50;;;;;;2113897;28;20400;-73
2020/12/22 01:26:24;;;;;;;0.43;0.40;;;16.60;71.60;;;;;;2113251;28;20035;-76
2020/12/22 01:27:24;;;;;;;0.35;0.30;;;16.60;71.70;;;;;;2103870;28;20075;-75
2020/12/22 01:28:25;;;;;;;0.50;0.50;;;16.50;71.80;;;;;;2104800;28;20051;-75
2020/12/22 01:29:26;;;;;;;1.33;0.52;;;16.60;71.90;;;;;;2113061;28;20050;-73
2020/12/22 01:30:26;;;;;;;0.40;0.40;;;16.50;71.90;;;;;;2113771;28;20890;-74
2020/12/22 01:31:29;;;;;;;0.57;0.40;;;16.50;72.00;;;;;;2113053;28;20032;-72
2020/12/22 01:32:30;;;;;;;0.40;0.40;;;16.50;72.10;;;;;;2113596;28;20477;-75
2020/12/22 01:33:31;;;;;;;0.60;0.47;;;16.50;72.20;;;;;;2113749;28;20464;-74
2020/12/22 01:34:31;;;;;;;0.40;0.40;;;16.50;72.30;;;;;;2113114;28;20032;-72
2020/12/22 01:35:32;;;;;;;0.63;0.50;;;16.50;72.30;;;;;;2104968;28;20028;-73
2020/12/22 01:36:33;;;;;;;0.75;0.60;;;16.50;72.30;;;;;;2104566;28;20039;-73
2020/12/22 01:37:33;;;;;;;0.60;0.50;;;16.50;72.30;;;;;;2112878;28;20039;-75
2020/12/22 01:38:34;;;;;;;2.20;0.70;;;16.50;72.30;;;;;;2113560;28;20038;-72
2020/12/22 01:39:34;;;;;;;0.38;0.38;;;16.50;72.30;;;;;;2108361;28;20058;-73
2020/12/22 01:40:35;;;;;;;0.60;0.60;;;16.50;72.40;;;;;;2109488;28;20120;-73
2020/12/22 01:41:37;;;;;;;0.60;0.60;;;16.50;72.40;;;;;;2113841;28;20034;-74
2020/12/22 01:42:42;;;;;;;1.10;0.68;;;16.60;72.50;;;;;;2112257;28;20054;-74
2020/12/22 01:44:00;;;;;;;0.68;0.60;;;16.60;72.60;;;;;;2114076;28;20031;-75
2020/12/22 01:45:00;;;;;;;0.77;0.47;;;16.50;72.40;;;;;;2113713;28;20565;-74
2020/12/22 01:46:01;;;;;;;1.38;0.50;;;16.60;72.50;;;;;;2113219;28;20078;-74
2020/12/22 01:47:02;;;;;;;1.42;0.80;;;16.60;72.50;;;;;;2113387;28;20026;-73
2020/12/22 01:48:02;;;;;;;0.60;0.60;;;16.50;72.30;;;;;;2113326;28;20016;-73
2020/12/22 01:49:06;;;;;;;0.60;0.60;;;16.60;72.50;;;;;;2113001;28;20054;-75
2020/12/22 01:50:07;;;;;;;1.40;0.50;;;16.50;72.40;;;;;;2112981;28;20030;-71
2020/12/22 01:51:07;;;;;;;0.60;0.50;;;16.60;72.50;;;;;;2113910;28;20705;-72
2020/12/22 01:52:09;;;;;;;0.40;0.40;;;16.60;72.50;;;;;;2112700;28;20417;-74
2020/12/22 01:53:10;;;;;;;1.60;0.50;;;16.60;72.50;;;;;;2112901;28;20028;-71
2020/12/22 01:54:12;;;;;;;0.52;0.52;;;16.60;72.50;;;;;;2112662;28;20038;-72
2020/12/22 01:55:12;;;;;;;0.60;0.60;;;16.60;72.50;;;;;;2113329;28;20083;-72
2020/12/22 01:56:13;;;;;;;0.57;0.50;;;16.60;72.50;;;;;;2113785;28;20084;-72
2020/12/22 01:57:14;;;;;;;1.27;0.52;;;16.60;72.50;;;;;;2113147;28;20477;-71
2020/12/22 01:58:15;;;;;;;1.13;0.50;;;16.60;72.60;;;;;;2113510;28;20055;-74
2020/12/22 01:59:17;;;;;;;1.10;0.70;;;16.60;72.70;;;;;;2113039;28;20027;-74
2020/12/22 02:00:18;;;;;;;0.70;0.70;;;16.60;72.70;;;;;;2113580;28;20528;-72
2020/12/22 02:01:18;;;;;;;1.33;0.80;;;16.60;72.60;;;;;;2112751;28;20031;-71
2020/12/22 02:02:19;;;;;;;1.17;0.60;;;16.60;72.60;;;;;;2113847;28;20438;-72
2020/12/22 02:03:19;;;;;;;2.30;0.45;;;16.60;72.60;;;;;;2113779;28;20015;-72
2020/12/22 02:04:21;;;;;;;0.57;0.50;;;16.60;72.70;;;;;;2113274;28;20085;-75
2020/12/22 02:05:21;;;;;;;1.50;0.73;;;16.50;72.70;;;;;;2113992;28;20382;-74
2020/12/22 02:06:22;;;;;;;0.85;0.65;;;16.50;72.70;;;;;;2113658;28;20032;-73
2020/12/22 02:07:23;;;;;;;0.70;0.65;;;16.50;72.80;;;;;;2113290;28;20030;-75
2020/12/22 02:08:23;;;;;;;2.80;0.85;;;16.50;72.80;;;;;;2113321;28;20035;-75
2020/12/22 02:09:24;;;;;;;1.00;0.60;;;16.50;72.90;;;;;;2112909;28;20450;-75
2020/12/22 02:10:25;;;;;;;0.70;0.70;;;16.50;72.90;;;;;;2112827;28;20452;-73
2020/12/22 02:11:29;;;;;;;1.80;0.80;;;16.40;72.90;;;;;;2113685;28;20474;-74
2020/12/22 02:12:29;;;;;;;1.30;0.88;;;16.40;72.90;;;;;;2112309;28;20027;-74
2020/12/22 02:13:30;;;;;;;1.15;0.50;;;16.40;73.00;;;;;;2113408;28;20016;-74
2020/12/22 02:14:31;;;;;;;3.35;0.70;;;16.40;73.10;;;;;;2113187;28;20547;-71
2020/12/22 02:15:31;;;;;;;1.55;0.90;;;16.40;73.30;;;;;;2113538;28;20102;-72
2020/12/22 02:16:32;;;;;;;0.70;0.70;;;16.40;73.30;;;;;;2112804;28;20028;-73
2020/12/22 02:17:34;;;;;;;0.60;0.60;;;16.40;73.40;;;;;;2113580;28;20411;-71
2020/12/22 02:18:35;;;;;;;1.35;0.80;;;16.40;73.50;;;;;;2113258;28;20032;-73
2020/12/22 02:19:36;;;;;;;1.05;0.77;;;16.40;73.60;;;;;;2104053;28;20027;-74
2020/12/22 02:20:39;;;;;;;1.92;0.88;;;16.40;73.80;;;;;;2104758;28;20024;-74
2020/12/22 02:21:40;;;;;;;0.82;0.60;;;16.40;73.80;;;;;;2113259;28;20028;-73
2020/12/22 02:22:40;;;;;;;0.68;0.60;;;16.40;73.80;;;;;;2112645;28;20059;-73
2020/12/22 02:23:41;;;;;;;0.63;0.60;;;16.40;73.80;;;;;;2113853;28;20407;-75
2020/12/22 02:24:41;;;;;;;1.17;0.70;;;16.40;73.90;;;;;;2104509;28;20535;-73
2020/12/22 02:25:47;;;;;;;1.02;0.80;;;16.30;73.80;;;;;;2104041;28;20036;-71
2020/12/22 02:26:47;;;;;;;0.68;0.52;;;16.30;74.00;;;;;;2113483;28;20028;-74
2020/12/22 02:27:48;;;;;;;0.80;0.80;;;16.30;73.90;;;;;;2112765;28;20087;-71
2020/12/22 02:28:51;;;;;;;2.08;0.65;;;16.30;74.00;;;;;;2112204;28;20061;-73
2020/12/22 02:29:51;;;;;;;1.13;0.82;;;16.30;74.30;;;;;;2113420;28;20606;-74
2020/12/22 02:30:52;;;;;;;1.58;0.75;;;16.30;74.00;;;;;;2113060;28;20076;-73
2020/12/22 02:31:52;;;;;;;1.02;0.77;;;16.30;74.10;;;;;;2112938;28;20039;-73
2020/12/22 02:32:53;;;;;;;1.45;0.65;;;16.30;74.20;;;;;;2113190;28;20028;-72
2020/12/22 02:33:53;;;;;;;0.90;0.85;;;16.30;74.30;;;;;;2113504;28;20829;-72
2020/12/22 02:34:54;;;;;;;0.80;0.80;;;16.30;74.40;;;;;;2112799;28;20412;-73
2020/12/22 02:35:55;;;;;;;0.82;0.80;;;16.30;74.50;;;;;;2113346;28;20057;-73
2020/12/22 02:36:56;;;;;;;0.60;0.60;;;16.30;74.50;;;;;;2113132;28;20449;-75
2020/12/22 02:37:56;;;;;;;2.72;0.80;;;16.30;74.50;;;;;;2113201;28;20106;-73
2020/12/22 02:38:57;;;;;;;0.93;0.60;;;16.30;74.60;;;;;;2112817;28;20026;-74
2020/12/22 02:39:57;;;;;;;0.68;0.68;;;16.30;74.70;;;;;;2112900;28;20397;-73
2020/12/22 02:40:58;;;;;;;0.65;0.60;;;16.30;74.70;;;;;;2112953;28;20023;-73
2020/12/22 02:41:58;;;;;;;2.00;0.70;;;16.30;74.70;;;;;;2111937;28;20081;-74
2020/12/22 02:43:10;;;;;;;1.48;0.90;;;16.30;74.70;;;;;;2113111;28;20031;-74
2020/12/22 02:44:10;;;;;;;1.55;0.88;;;16.20;74.80;;;;;;2112868;28;20530;-73
2020/12/22 02:45:11;;;;;;;0.68;0.68;;;16.30;74.70;;;;;;2104907;28;20115;-74
2020/12/22 02:46:12;;;;;;;1.08;0.82;;;16.30;74.80;;;;;;2102788;28;20103;-73
2020/12/22 02:47:14;;;;;;;1.95;0.60;;;16.20;75.50;;;;;;2112885;28;20020;-74
2020/12/22 02:48:15;;;;;;;1.20;0.90;;;16.30;74.90;;;;;;2113251;28;20402;-73
2020/12/22 02:49:15;;;;;;;1.55;0.65;;;16.30;74.90;;;;;;2111902;28;20073;-75
2020/12/22 02:50:16;;;;;;;2.13;1.15;;;16.30;75.00;;;;;;2103700;28;20154;-74
2020/12/22 02:51:17;;;;;;;0.65;0.65;;;16.30;75.00;;;;;;2103664;28;20175;-74
2020/12/22 02:52:17;;;;;;;0.70;0.70;;;16.20;75.00;;;;;;2113129;28;20034;-73
2020/12/22 02:53:18;;;;;;;1.08;0.73;;;16.20;75.00;;;;;;2113327;28;20027;-74
2020/12/22 02:54:19;;;;;;;2.35;0.93;;;16.30;75.10;;;;;;2112960;28;20077;-73
2020/12/22 02:55:19;;;;;;;1.00;0.73;;;16.30;75.10;;;;;;2103430;28;20102;-72
2020/12/22 02:56:20;;;;;;;0.80;0.60;;;16.30;75.00;;;;;;2104323;28;20071;-74
2020/12/22 02:57:20;;;;;;;1.15;0.63;;;16.30;75.00;;;;;;2112486;28;20104;-74
2020/12/22 02:58:21;;;;;;;1.10;0.60;;;16.30;75.00;;;;;;2112938;28;20098;-75
2020/12/22 02:59:22;;;;;;;1.35;0.77;;;16.20;75.00;;;;;;2111788;28;20038;-74
2020/12/22 03:00:23;;;;;;;1.63;0.90;;;16.30;75.00;;;;;;2112501;28;20031;-72
2020/12/22 03:01:23;;;;;;;3.47;0.68;;;16.30;75.10;;;;;;2112188;28;20490;-72
2020/12/22 03:02:24;;;;;;;1.13;0.73;;;16.30;75.10;;;;;;2103358;28;20036;-74
2020/12/22 03:03:25;;;;;;;1.35;0.80;;;16.30;75.00;;;;;;2103813;28;20024;-74
2020/12/22 03:04:25;;;;;;;1.65;0.85;;;16.30;75.10;;;;;;2112539;28;20019;-74
2020/12/22 03:05:26;;;;;;;1.52;0.88;;;16.30;75.10;;;;;;2112971;28;20035;-74
2020/12/22 03:06:26;;;;;;;0.77;0.70;;;16.30;75.10;;;;;;2112739;28;20027;-73
2020/12/22 03:07:27;;;;;;;0.60;0.60;;;16.30;75.00;;;;;;2111991;28;20035;-72
2020/12/22 03:08:29;;;;;;;2.85;1.00;;;16.30;75.00;;;;;;2112924;28;20362;-71
2020/12/22 03:09:30;;;;;;;1.05;0.70;;;16.30;75.00;;;;;;2110940;28;20608;-74
2020/12/22 03:10:30;;;;;;;0.70;0.70;;;16.30;74.90;;;;;;2112087;28;20067;-74
2020/12/22 03:11:31;;;;;;;1.27;0.88;;;16.40;75.10;;;;;;2112463;28;20461;-74
2020/12/22 03:12:31;;;;;;;1.30;0.90;;;16.40;75.10;;;;;;2112160;28;20023;-75
2020/12/22 03:13:32;;;;;;;1.00;0.80;;;16.40;75.10;;;;;;2112723;28;20058;-74
2020/12/22 03:14:33;;;;;;;1.48;0.82;;;16.40;75.00;;;;;;2112127;28;20028;-72
2020/12/22 03:15:33;;;;;;;1.65;0.90;;;16.40;75.00;;;;;;2100319;28;20425;-75
2020/12/22 03:16:34;;;;;;;1.13;0.70;;;16.40;75.00;;;;;;2099717;28;20815;-74
2020/12/22 03:17:36;;;;;;;0.75;0.73;;;16.40;74.90;;;;;;2112478;28;20027;-74
2020/12/22 03:18:36;;;;;;;0.70;0.60;;;16.40;75.00;;;;;;2112864;28;20034;-74
2020/12/22 03:19:38;;;;;;;0.77;0.73;;;16.40;74.90;;;;;;2103332;28;20032;-74
2020/12/22 03:20:38;;;;;;;3.13;0.90;;;16.40;74.90;;;;;;2104162;28;20023;-70
2020/12/22 03:21:39;;;;;;;2.45;0.90;;;16.40;74.90;;;;;;2112898;28;20107;-74
2020/12/22 03:22:42;;;;;;;0.95;0.70;;;16.50;74.90;;;;;;2112643;28;20510;-74
2020/12/22 03:23:43;;;;;;;0.95;0.70;;;16.50;74.80;;;;;;2112528;28;20130;-73
2020/12/22 03:24:44;;;;;;;0.73;0.73;;;16.50;74.80;;;;;;2112522;28;20035;-72
2020/12/22 03:25:44;;;;;;;0.93;0.75;;;16.50;74.80;;;;;;2113146;28;20023;-72
2020/12/22 03:26:45;;;;;;;0.45;0.45;;;16.50;74.80;;;;;;2113009;28;20027;-74
2020/12/22 03:27:45;;;;;;;2.33;0.60;;;16.50;74.70;;;;;;2112109;28;20040;-74
2020/12/22 03:28:46;;;;;;;2.10;0.85;;;16.50;75.00;;;;;;2112133;28;20020;-73
2020/12/22 03:29:47;;;;;;;1.48;0.65;;;16.60;74.80;;;;;;2112115;28;20023;-73
2020/12/22 03:30:47;;;;;;;0.60;0.60;;;16.50;74.70;;;;;;2112008;28;20035;-72
2020/12/22 03:31:48;;;;;;;0.60;0.60;;;16.50;74.60;;;;;;2111584;28;20150;-74
2020/12/22 03:32:48;;;;;;;1.10;0.63;;;16.60;74.70;;;;;;2112539;28;20106;-73
2020/12/22 03:33:49;;;;;;;1.15;0.60;;;16.60;74.60;;;;;;2104039;28;20036;-73
2020/12/22 03:34:50;;;;;;;1.25;0.70;;;16.60;74.60;;;;;;2103653;28;20637;-71
2020/12/22 03:35:50;;;;;;;0.73;0.70;;;16.60;74.60;;;;;;2100238;28;20125;-75
2020/12/22 03:36:51;;;;;;;0.65;0.55;;;16.60;74.60;;;;;;2100112;28;20082;-73
2020/12/22 03:37:52;;;;;;;0.60;0.60;;;16.70;74.50;;;;;;2112290;28;20089;-74
2020/12/22 03:38:52;;;;;;;1.75;0.70;;;16.60;74.50;;;;;;2103875;28;20647;-72
2020/12/22 03:39:55;;;;;;;0.80;0.60;;;16.60;74.50;;;;;;2103964;28;20532;-72
2020/12/22 03:40:56;;;;;;;1.80;0.73;;;16.60;74.40;;;;;;2112138;28;20019;-73
2020/12/22 03:41:56;;;;;;;2.97;0.70;;;16.70;74.50;;;;;;2112231;28;20125;-74
2020/12/22 03:42:57;;;;;;;0.60;0.50;;;16.70;74.50;;;;;;2111868;28;20020;-73
2020/12/22 03:43:57;;;;;;;0.65;0.50;;;16.70;74.40;;;;;;2113047;28;20035;-72
2020/12/22 03:44:58;;;;;;;1.55;0.68;;;16.70;74.40;;;;;;2112960;28;20043;-73
2020/12/22 03:45:59;;;;;;;1.35;0.80;;;16.70;74.30;;;;;;2112674;28;20696;-75
2020/12/22 03:46:59;;;;;;;0.73;0.52;;;16.70;74.20;;;;;;2111490;28;20020;-74
2020/12/22 03:48:00;;;;;;;0.88;0.50;;;16.70;74.20;;;;;;2112032;28;20026;-73
2020/12/22 03:49:00;;;;;;;1.98;0.70;;;16.70;74.20;;;;;;2111564;28;20049;-74
2020/12/22 03:50:02;;;;;;;0.73;0.70;;;16.70;74.20;;;;;;2112667;28;20038;-74
2020/12/22 03:51:03;;;;;;;1.13;0.60;;;16.70;74.20;;;;;;2112926;28;20023;-73
2020/12/22 03:52:04;;;;;;;0.65;0.50;;;16.70;74.20;;;;;;2103639;28;20520;-74
2020/12/22 03:53:05;;;;;;;0.75;0.63;;;16.70;74.20;;;;;;2095832;28;20028;-74
2020/12/22 03:54:05;;;;;;;0.50;0.50;;;16.70;74.20;;;;;;2101230;28;20051;-72
2020/12/22 03:55:06;;;;;;;1.75;0.80;;;16.70;74.30;;;;;;2112253;28;20022;-75
2020/12/22 03:56:06;;;;;;;0.60;0.60;;;16.70;74.20;;;;;;2112426;28;20032;-73
2020/12/22 03:57:07;;;;;;;1.02;0.55;;;16.70;74.30;;;;;;2112382;28;20077;-74
2020/12/22 03:58:08;;;;;;;1.88;0.70;;;16.70;74.30;;;;;;2112846;28;20031;-75
2020/12/22 03:59:08;;;;;;;0.60;0.60;;;16.70;74.30;;;;;;2111597;28;20469;-73
2020/12/22 04:00:12;;;;;;;0.80;0.68;;;16.70;74.30;;;;;;2112573;28;20031;-74
2020/12/22 04:01:13;;;;;;;0.63;0.57;;;16.70;74.30;;;;;;2111771;28;20040;-74
2020/12/22 04:02:14;;;;;;;0.90;0.50;;;16.70;74.30;;;;;;2111959;28;20637;-74
2020/12/22 04:03:14;;;;;;;0.50;0.50;;;16.70;74.30;;;;;;2112016;28;20055;-73
2020/12/22 04:04:19;;;;;;;0.40;0.40;;;16.70;74.30;;;;;;2112477;28;20424;-74
2020/12/22 04:05:20;;;;;;;0.43;0.30;;;16.70;74.30;;;;;;2103977;28;20099;-74
2020/12/22 04:06:21;;;;;;;0.40;0.40;;;16.70;74.30;;;;;;2102771;28;20032;-73
2020/12/22 04:07:21;;;;;;;1.33;0.50;;;16.80;74.30;;;;;;2112652;28;20024;-75
2020/12/22 04:08:22;;;;;;;0.50;0.50;;;16.80;74.40;;;;;;2112740;28;20019;-73
2020/12/22 04:09:23;;;;;;;1.77;0.85;;;16.80;74.40;;;;;;2112210;28;20631;-74
2020/12/22 04:10:23;;;;;;;1.05;0.60;;;16.70;74.30;;;;;;2103671;28;20112;-77
2020/12/22 04:11:24;;;;;;;0.50;0.50;;;16.80;74.40;;;;;;2095733;28;20033;-75
2020/12/22 04:12:25;;;;;;;1.55;0.60;;;16.70;74.30;;;;;;2103218;28;20036;-74
2020/12/22 04:13:25;;;;;;;0.55;0.47;;;16.70;74.30;;;;;;2112874;28;20486;-73
2020/12/22 04:14:26;;;;;;;0.63;0.40;;;16.70;74.20;;;;;;2112772;28;20361;-75
2020/12/22 04:15:26;;;;;;;1.52;0.50;;;16.70;75.10;;;;;;2111815;28;20044;-74
2020/12/22 04:16:27;;;;;;;0.30;0.30;;;16.70;74.40;;;;;;2102945;28;20071;-73
2020/12/22 04:17:27;;;;;;;0.93;0.40;;;16.70;74.40;;;;;;2103716;28;20042;-74
2020/12/22 04:18:28;;;;;;;1.65;0.50;;;16.70;74.40;;;;;;2103465;28;20115;-72
2020/12/22 04:19:29;;;;;;;1.95;0.70;;;16.70;74.50;;;;;;2103549;28;20355;-74
2020/12/22 04:20:30;;;;;;;0.57;0.43;;;16.70;74.50;;;;;;2112472;28;20035;-74
2020/12/22 04:21:31;;;;;;;1.55;0.50;;;16.70;74.50;;;;;;2112110;28;20028;-71
2020/12/22 04:22:31;;;;;;;0.63;0.45;;;16.60;74.50;;;;;;2103377;28;20039;-73
2020/12/22 04:23:32;;;;;;;0.50;0.50;;;16.60;74.60;;;;;;2095714;28;20037;-75
2020/12/22 04:24:32;;;;;;;0.40;0.40;;;16.60;74.60;;;;;;2103351;28;20024;-75
2020/12/22 04:25:33;;;;;;;0.80;0.40;;;16.60;74.80;;;;;;2112613;28;20111;-74
2020/12/22 04:26:34;;;;;;;0.75;0.50;;;16.60;74.80;;;;;;2112676;28;20315;-73
2020/12/22 04:27:34;;;;;;;0.40;0.40;;;16.50;74.80;;;;;;2111835;28;20053;-75
2020/12/22 04:28:35;;;;;;;0.40;0.40;;;16.60;74.90;;;;;;2112511;28;20031;-75
2020/12/22 04:29:35;;;;;;;0.52;0.52;;;16.60;75.00;;;;;;2112718;28;20028;-76
2020/12/22 04:30:36;;;;;;;0.82;0.40;;;16.50;75.00;;;;;;2112159;28;20016;-77
2020/12/22 04:31:36;;;;;;;0.40;0.40;;;16.50;75.20;;;;;;2112096;28;20032;-74
2020/12/22 04:32:37;;;;;;;0.47;0.47;;;16.50;75.20;;;;;;2113163;28;20086;-77
2020/12/22 04:33:38;;;;;;;0.63;0.50;;;16.50;75.20;;;;;;2113378;28;20053;-75
2020/12/22 04:34:38;;;;;;;2.50;0.50;;;16.50;75.40;;;;;;2111979;28;20038;-75
2020/12/22 04:35:40;;;;;;;0.70;0.60;;;16.50;75.40;;;;;;2103801;28;20047;-74
2020/12/22 04:36:40;;;;;;;0.45;0.45;;;16.40;75.30;;;;;;2095537;28;20454;-74
2020/12/22 04:37:41;;;;;;;0.60;0.50;;;16.40;75.30;;;;;;2103797;28;20016;-76
2020/12/22 04:38:41;;;;;;;0.57;0.50;;;16.50;75.30;;;;;;2103662;28;20024;-73
2020/12/22 04:39:42;;;;;;;0.40;0.40;;;16.50;75.40;;;;;;2103565;28;20059;-75
2020/12/22 04:40:43;;;;;;;0.65;0.60;;;16.40;75.30;;;;;;2111194;28;20486;-75
2020/12/22 04:41:48;;;;;;;0.98;0.40;;;16.40;75.40;;;;;;2112748;28;20032;-73
2020/12/22 04:42:50;;;;;;;0.47;0.32;;;16.50;75.60;;;;;;2111333;28;20020;-74
2020/12/22 04:43:52;;;;;;;1.58;0.50;;;16.40;76.20;;;;;;2112265;28;20035;-73
2020/12/22 04:44:52;;;;;;;1.15;0.80;;;16.40;75.40;;;;;;2111903;28;20030;-73
2020/12/22 04:45:55;;;;;;;0.68;0.57;;;16.40;75.40;;;;;;2112675;28;20027;-75
2020/12/22 04:46:56;;;;;;;1.35;0.40;;;16.50;75.50;;;;;;2111783;28;20133;-74
2020/12/22 04:47:57;;;;;;;0.82;0.52;;;16.40;75.40;;;;;;2111222;28;20740;-74
2020/12/22 04:48:58;;;;;;;0.80;0.52;;;16.50;75.50;;;;;;2102633;28;20031;-73
2020/12/22 04:50:03;;;;;;;0.50;0.50;;;16.50;75.50;;;;;;2103078;28;20111;-75
2020/12/22 04:51:08;;;;;;;0.40;0.40;;;16.50;75.50;;;;;;2112870;28;20327;-74
2020/12/22 04:52:12;;;;;;;0.38;0.38;;;16.50;75.60;;;;;;2111466;28;20027;-75
2020/12/22 04:53:13;;;;;;;0.50;0.50;;;16.50;75.60;;;;;;2111764;28;20120;-75
2020/12/22 04:54:15;;;;;;;0.77;0.50;;;16.50;75.60;;;;;;2112739;28;20016;-75
2020/12/22 04:55:18;;;;;;;0.40;0.40;;;16.50;75.70;;;;;;2103401;28;20061;-76
2020/12/22 04:56:19;;;;;;;0.43;0.43;;;16.50;76.00;;;;;;2103984;28;20506;-74
2020/12/22 04:57:30;;;;;;;0.60;0.57;;;16.50;76.00;;;;;;2111291;28;20035;-75
2020/12/22 04:58:30;;;;;;;0.45;0.40;;;16.50;76.10;;;;;;2111783;28;20027;-74
2020/12/22 04:59:32;;;;;;;0.50;0.50;;;16.50;75.90;;;;;;2112376;28;20038;-75
2020/12/22 05:00:33;;;;;;;0.50;0.50;;;16.50;75.90;;;;;;2112659;28;20085;-75
2020/12/22 05:01:33;;;;;;;0.38;0.38;;;16.50;75.90;;;;;;2093829;28;20455;-75
2020/12/22 05:02:40;;;;;;;0.40;0.38;;;16.50;76.00;;;;;;2086742;28;20079;-74
2020/12/22 05:03:41;;;;;;;0.50;0.50;;;16.50;76.00;;;;;;2104409;28;20020;-73
2020/12/22 05:04:41;;;;;;;0.40;0.40;;;16.50;75.90;;;;;;2112525;28;20114;-75
2020/12/22 05:05:42;;;;;;;0.47;0.38;;;16.50;76.00;;;;;;2112393;28;20049;-75
2020/12/22 05:06:42;;;;;;;0.40;0.40;;;16.50;76.30;;;;;;2111855;28;20066;-77
2020/12/22 05:07:43;;;;;;;0.90;0.40;;;16.50;76.30;;;;;;2112233;28;20039;-75
2020/12/22 05:08:44;;;;;;;0.73;0.40;;;16.50;76.30;;;;;;2111088;28;20023;-74
2020/12/22 05:09:46;;;;;;;0.30;0.30;;;16.50;76.20;;;;;;2112249;28;20028;-75
2020/12/22 05:10:48;;;;;;;0.40;0.35;;;16.50;76.20;;;;;;2112145;28;20085;-74
2020/12/22 05:11:49;;;;;;;0.38;0.38;;;16.50;76.30;;;;;;2112368;28;20032;-73
2020/12/22 05:12:49;;;;;;;0.40;0.40;;;16.50;76.30;;;;;;2100023;28;20067;-75
2020/12/22 05:13:52;;;;;;;1.95;0.63;;;16.50;76.30;;;;;;2101249;28;20482;-75
2020/12/22 05:14:52;;;;;;;0.52;0.52;;;16.50;76.40;;;;;;2113930;28;20023;-75
2020/12/22 05:15:53;;;;;;;1.13;0.40;;;16.50;76.40;;;;;;2112708;28;20468;-75
2020/12/22 05:16:58;;;;;;;0.45;0.40;;;16.40;76.40;;;;;;2112093;28;20043;-75
2020/12/22 05:18:02;;;;;;;0.40;0.40;;;16.50;76.60;;;;;;2113621;28;20027;-75
2020/12/22 05:19:04;;;;;;;0.40;0.40;;;16.50;76.60;;;;;;2113154;27;20024;-75